createdAt,value
2018-09-18T00:00:40.078Z,18.30
2018-09-18T00:03:08.280Z,18.33
2018-09-18T00:05:36.541Z,17.70
2018-09-18T00:08:04.768Z,17.27
2018-09-18T00:10:32.979Z,18.67
2018-09-18T00:13:01.191Z,18.53
2018-09-18T00:15:29.671Z,18.40
2018-09-18T00:17:57.918Z,17.90
2018-09-18T00:20:26.113Z,17.93
2018-09-18T00:22:54.313Z,18.30
2018-09-18T00:25:22.541Z,16.93
2018-09-18T00:27:50.749Z,16.97
2018-09-18T00:30:19.014Z,18.00
2018-09-18T00:32:47.306Z,18.73
2018-09-18T00:35:15.538Z,17.90
2018-09-18T00:37:43.904Z,17.23
2018-09-18T00:40:12.164Z,16.10
2018-09-18T00:42:40.412Z,16.03
2018-09-18T00:45:08.646Z,16.30
2018-09-18T00:47:36.899Z,17.40
2018-09-18T00:50:05.380Z,16.43
2018-09-18T00:52:33.607Z,15.90
2018-09-18T00:55:01.860Z,16.43
2018-09-18T00:57:30.073Z,16.00
2018-09-18T00:59:58.305Z,17.17
2018-09-18T01:02:26.684Z,15.03
2018-09-18T01:04:54.945Z,16.27
2018-09-18T01:07:23.161Z,15.70
2018-09-18T01:09:51.378Z,16.60
2018-09-18T01:12:19.579Z,16.07
2018-09-18T01:14:47.802Z,14.63
2018-09-18T01:17:15.989Z,15.10
2018-09-18T01:19:44.235Z,16.43
2018-09-18T01:22:12.488Z,15.10
2018-09-18T01:24:40.677Z,14.80
2018-09-18T01:27:08.909Z,15.10
2018-09-18T01:29:37.160Z,15.50
2018-09-18T01:32:06.002Z,15.63
2018-09-18T01:34:34.383Z,14.80
2018-09-18T01:37:02.584Z,15.37
2018-09-18T01:39:30.801Z,14.13
2018-09-18T01:41:58.999Z,14.93
2018-09-18T01:44:27.320Z,14.37
2018-09-18T01:46:55.543Z,14.03
2018-09-18T01:49:23.785Z,14.40
2018-09-18T01:51:52.294Z,16.83
2018-09-18T01:54:20.965Z,14.80
2018-09-18T01:56:49.185Z,15.00
2018-09-18T01:59:17.618Z,15.50
2018-09-18T02:01:45.841Z,14.97
2018-09-18T02:04:14.189Z,14.83
2018-09-18T02:06:42.405Z,14.63
2018-09-18T02:09:10.627Z,14.40
2018-09-18T02:11:38.882Z,13.70
2018-09-18T02:14:07.089Z,14.10
2018-09-18T02:16:35.317Z,15.27
2018-09-18T02:19:03.521Z,15.27
2018-09-18T02:21:31.773Z,14.20
2018-09-18T02:23:59.989Z,13.50
2018-09-18T02:26:28.244Z,14.03
2018-09-18T02:28:56.473Z,14.63
2018-09-18T02:31:24.735Z,15.77
2018-09-18T02:33:52.917Z,15.70
2018-09-18T02:36:21.347Z,14.20
2018-09-18T02:38:50.037Z,13.40
2018-09-18T02:41:18.246Z,15.07
2018-09-18T02:43:46.464Z,14.17
2018-09-18T02:46:14.709Z,14.67
2018-09-18T02:48:42.959Z,14.40
2018-09-18T02:51:11.519Z,14.20
2018-09-18T02:53:40.107Z,15.10
2018-09-18T02:56:08.333Z,14.27
2018-09-18T02:58:36.523Z,15.60
2018-09-18T03:01:04.767Z,15.57
2018-09-18T03:03:33.121Z,16.00
2018-09-18T03:06:01.320Z,14.13
2018-09-18T03:08:29.543Z,15.00
2018-09-18T03:10:57.789Z,15.70
2018-09-18T03:13:27.711Z,15.10
2018-09-18T03:15:55.925Z,15.40
2018-09-18T03:18:24.149Z,16.00
2018-09-18T03:20:52.444Z,16.50
2018-09-18T03:23:20.624Z,15.20
2018-09-18T03:25:48.858Z,15.70
2018-09-18T03:28:17.080Z,16.53
2018-09-18T03:30:45.307Z,14.53
2018-09-18T03:33:13.546Z,15.37
2018-09-18T03:35:41.766Z,14.50
2018-09-18T03:38:09.965Z,14.57
2018-09-18T03:40:38.479Z,14.70
2018-09-18T03:43:06.708Z,16.07
2018-09-18T03:45:34.922Z,15.07
2018-09-18T03:48:03.151Z,14.10
2018-09-18T03:50:31.352Z,14.63
2018-09-18T03:52:59.573Z,14.60
2018-09-18T03:55:27.891Z,15.17
2018-09-18T03:57:56.363Z,14.23
2018-09-18T04:00:24.555Z,16.50
2018-09-18T04:02:52.851Z,13.93
2018-09-18T04:05:20.986Z,15.63
2018-09-18T04:07:49.203Z,15.70
2018-09-18T04:10:17.396Z,15.87
2018-09-18T04:12:45.613Z,15.80
2018-09-18T04:15:13.837Z,17.33
2018-09-18T04:17:42.116Z,15.93
2018-09-18T04:20:10.581Z,16.10
2018-09-18T04:22:38.789Z,16.03
2018-09-18T04:25:07.049Z,15.50
2018-09-18T04:27:35.282Z,15.70
2018-09-18T04:30:03.498Z,17.87
2018-09-18T04:32:31.734Z,16.40
2018-09-18T04:35:00.074Z,15.00
2018-09-18T04:37:28.433Z,15.20
2018-09-18T04:39:56.643Z,15.60
2018-09-18T04:42:25.048Z,15.43
2018-09-18T04:44:53.278Z,16.00
2018-09-18T04:47:21.529Z,15.63
2018-09-18T04:49:49.751Z,16.30
2018-09-18T04:52:17.953Z,16.27
2018-09-18T04:54:46.181Z,15.43
2018-09-18T04:57:14.406Z,14.50
2018-09-18T04:59:42.617Z,14.90
2018-09-18T05:02:10.992Z,15.30
2018-09-18T05:04:39.257Z,15.00
2018-09-18T05:07:07.491Z,14.57
2018-09-18T05:09:35.729Z,15.93
2018-09-18T05:12:04.141Z,15.30
2018-09-18T05:14:32.413Z,16.27
2018-09-18T05:17:00.614Z,15.47
2018-09-18T05:19:28.905Z,15.40
2018-09-18T05:21:57.115Z,15.90
2018-09-18T05:24:25.341Z,15.57
2018-09-18T05:26:53.737Z,16.27
2018-09-18T05:29:21.928Z,15.43
2018-09-18T05:31:50.166Z,17.07
2018-09-18T05:34:18.377Z,15.70
2018-09-18T05:36:46.617Z,15.23
2018-09-18T05:39:14.897Z,15.10
2018-09-18T05:41:43.169Z,14.53
2018-09-18T05:44:11.391Z,14.83
2018-09-18T05:46:39.650Z,15.93
2018-09-18T05:49:07.897Z,14.07
2018-09-18T05:51:36.148Z,14.30
2018-09-18T05:54:04.440Z,14.90
2018-09-18T05:56:32.665Z,13.63
2018-09-18T05:59:01.080Z,15.57
2018-09-18T06:01:29.288Z,15.10
2018-09-18T06:03:57.493Z,14.80
2018-09-18T06:06:25.705Z,13.90
2018-09-18T06:08:54.096Z,14.00
2018-09-18T06:11:22.289Z,13.30
2018-09-18T06:13:50.519Z,13.67
2018-09-18T06:16:18.750Z,13.33
2018-09-18T06:18:47.056Z,13.40
2018-09-18T06:21:15.229Z,17.80
2018-09-18T06:23:43.445Z,14.43
2018-09-18T06:26:11.646Z,14.10
2018-09-18T06:28:39.887Z,13.67
2018-09-18T06:31:08.369Z,13.73
2018-09-18T06:33:36.556Z,14.27
2018-09-18T06:36:04.761Z,15.63
2018-09-18T06:38:32.969Z,13.93
2018-09-18T06:41:01.173Z,19.27
2018-09-18T06:43:29.397Z,16.23
2018-09-18T06:45:57.827Z,14.53
2018-09-18T06:48:26.000Z,15.23
2018-09-18T06:50:54.442Z,15.50
2018-09-18T06:53:22.653Z,13.37
2018-09-18T06:55:50.857Z,13.20
2018-09-18T06:58:19.079Z,15.77
2018-09-18T07:00:47.425Z,12.20
2018-09-18T07:03:15.859Z,12.43
2018-09-18T07:05:44.215Z,13.50
2018-09-18T07:08:12.413Z,13.87
2018-09-18T07:10:40.599Z,13.43
2018-09-18T07:13:08.798Z,14.40
2018-09-18T07:15:37.166Z,13.00
2018-09-18T07:18:05.453Z,13.00
2018-09-18T07:27:17.631Z,12.90
2018-09-18T07:29:45.854Z,12.40
2018-09-18T07:32:14.073Z,12.47
2018-09-18T07:34:42.291Z,13.97
2018-09-18T07:37:10.781Z,13.40
2018-09-18T07:39:39.151Z,13.03
2018-09-18T07:42:07.533Z,13.53
2018-09-18T07:44:35.730Z,12.30
2018-09-18T07:47:03.990Z,12.47
2018-09-18T07:49:32.194Z,10.97
2018-09-18T07:52:00.439Z,11.40
2018-09-18T07:54:28.664Z,11.50
2018-09-18T07:56:56.890Z,11.50
2018-09-18T07:59:25.342Z,11.40
2018-09-18T08:01:53.577Z,12.70
2018-09-18T08:04:21.838Z,11.30
2018-09-18T08:06:50.050Z,11.87
2018-09-18T08:09:18.293Z,10.87
2018-09-18T08:11:46.545Z,11.00
2018-09-18T08:14:14.743Z,10.27
2018-09-18T08:16:43.192Z,10.87
2018-09-18T08:19:11.500Z,10.80
2018-09-18T08:21:40.832Z,10.10
2018-09-18T08:24:09.107Z,9.13
2018-09-18T08:26:37.380Z,11.27
2018-09-18T08:29:05.602Z,10.00
2018-09-18T08:31:34.037Z,11.07
2018-09-18T08:34:02.365Z,9.50
2018-09-18T08:36:31.426Z,10.83
2018-09-18T08:38:59.729Z,10.00
2018-09-18T08:41:28.642Z,10.30
2018-09-18T08:43:57.099Z,10.00
2018-09-18T08:46:25.393Z,10.50
2018-09-18T08:48:56.353Z,12.17
2018-09-18T08:51:25.057Z,9.07
2018-09-18T08:53:53.451Z,10.20
2018-09-18T08:56:21.696Z,9.50
2018-09-18T08:58:50.350Z,9.20
2018-09-18T09:01:18.596Z,9.60
2018-09-18T09:03:46.917Z,8.90
2018-09-18T09:06:15.403Z,9.20
2018-09-18T09:08:43.621Z,9.27
2018-09-18T09:11:11.805Z,7.90
2018-09-18T09:13:40.050Z,9.57
2018-09-18T09:16:08.320Z,8.53
2018-09-18T09:18:36.642Z,8.80
2018-09-18T09:21:04.864Z,8.93
2018-09-18T09:23:33.026Z,8.87
2018-09-18T09:26:01.276Z,8.53
2018-09-18T09:28:29.940Z,8.50
2018-09-18T09:30:58.272Z,8.30
2018-09-18T09:33:26.548Z,8.27
2018-09-18T09:35:54.753Z,9.10
2018-09-18T09:38:22.994Z,8.30
2018-09-18T09:40:51.246Z,8.77
2018-09-18T09:43:19.442Z,8.87
2018-09-18T09:45:47.848Z,8.70
2018-09-18T09:48:16.072Z,8.10
2018-09-18T09:50:44.274Z,8.47
2018-09-18T09:53:12.528Z,8.63
2018-09-18T09:55:40.737Z,7.70
2018-09-18T09:58:09.010Z,8.87
2018-09-18T10:00:45.363Z,8.23
2018-09-18T10:03:14.373Z,8.90
2018-09-18T10:05:42.577Z,9.03
2018-09-18T10:08:10.811Z,8.93
2018-09-18T10:10:40.449Z,9.30
2018-09-18T10:13:08.648Z,9.60
2018-09-18T10:15:36.913Z,9.30
2018-09-18T10:18:05.217Z,8.00
2018-09-18T10:20:33.409Z,8.27
2018-09-18T10:23:01.626Z,8.80
2018-09-18T10:25:29.869Z,8.10
2018-09-18T10:27:58.073Z,7.80
2018-09-18T10:30:26.273Z,7.20
2018-09-18T10:32:54.910Z,8.43
2018-09-18T10:35:23.107Z,11.90
2018-09-18T10:37:51.276Z,8.63
2018-09-18T10:40:19.715Z,7.70
2018-09-18T10:42:48.016Z,7.27
2018-09-18T10:45:16.165Z,6.77
2018-09-18T10:47:44.434Z,7.70
2018-09-18T10:50:12.649Z,7.30
2018-09-18T10:52:40.889Z,21.73
2018-09-18T10:55:09.389Z,7.73
2018-09-18T10:57:37.593Z,9.00
2018-09-18T11:00:06.949Z,10.80
2018-09-18T11:02:35.168Z,7.03
2018-09-18T11:05:03.387Z,6.80
2018-09-18T11:07:31.931Z,7.63
2018-09-18T11:10:00.173Z,6.13
2018-09-18T11:12:28.353Z,6.87
2018-09-18T11:14:56.617Z,5.87
2018-09-18T11:17:24.805Z,5.40
2018-09-18T11:19:53.084Z,5.30
2018-09-18T11:22:21.413Z,5.83
2018-09-18T11:24:49.554Z,5.03
2018-09-18T11:27:17.771Z,5.20
2018-09-18T11:29:46.010Z,5.57
2018-09-18T11:32:14.466Z,6.43
2018-09-18T11:34:42.622Z,4.80
2018-09-18T11:37:10.823Z,5.00
2018-09-18T11:39:39.577Z,5.57
2018-09-18T11:42:07.801Z,5.90
2018-09-18T11:44:36.010Z,5.83
2018-09-18T11:47:04.232Z,6.10
2018-09-18T11:49:32.488Z,5.20
2018-09-18T11:52:00.758Z,5.20
2018-09-18T11:54:28.954Z,5.37
2018-09-18T11:56:57.204Z,5.60
2018-09-18T11:59:25.383Z,5.50
2018-09-18T12:01:53.770Z,4.93
2018-09-18T12:04:21.982Z,5.20
2018-09-18T12:06:50.534Z,5.13
2018-09-18T12:09:18.715Z,4.97
2018-09-18T12:11:46.969Z,5.07
2018-09-18T12:14:15.197Z,4.87
2018-09-18T12:16:43.412Z,4.80
2018-09-18T12:19:11.623Z,5.20
2018-09-18T12:21:39.909Z,5.10
2018-09-18T12:24:08.502Z,4.50
2018-09-18T12:26:37.672Z,4.03
2018-09-18T12:29:06.097Z,4.60
2018-09-18T12:31:34.407Z,4.53
2018-09-18T12:34:02.734Z,4.63
2018-09-18T12:36:31.075Z,4.30
2018-09-18T12:38:59.344Z,4.63
2018-09-18T12:41:27.773Z,4.97
2018-09-18T12:43:56.090Z,4.53
2018-09-18T12:46:24.660Z,4.70
2018-09-18T12:48:52.965Z,4.60
2018-09-18T12:51:21.208Z,4.87
2018-09-18T12:53:49.492Z,5.20
2018-09-18T12:56:17.750Z,5.10
2018-09-18T12:58:46.775Z,5.70
2018-09-18T13:01:15.067Z,5.67
2018-09-18T13:03:43.325Z,5.00
2018-09-18T13:06:11.754Z,5.80
2018-09-18T13:08:40.116Z,5.30
2018-09-18T13:11:08.387Z,5.43
2018-09-18T13:13:37.378Z,5.40
2018-09-18T13:16:05.634Z,4.70
2018-09-18T13:18:33.926Z,4.70
2018-09-18T13:21:02.254Z,4.53
2018-09-18T13:23:30.706Z,6.10
2018-09-18T13:25:59.140Z,5.17
2018-09-18T13:28:27.430Z,5.00
2018-09-18T13:30:55.799Z,4.80
2018-09-18T13:33:24.127Z,4.23
2018-09-18T13:35:52.666Z,4.77
2018-09-18T13:38:20.942Z,5.50
2018-09-18T13:40:49.317Z,5.50
2018-09-18T13:43:17.542Z,6.03
2018-09-18T13:45:45.872Z,4.00
2018-09-18T13:48:14.171Z,4.20
2018-09-18T13:50:42.438Z,4.50
2018-09-18T13:53:10.720Z,5.13
2018-09-18T13:55:40.025Z,4.40
2018-09-18T13:58:08.381Z,4.40
2018-09-18T14:00:36.943Z,3.87
2018-09-18T14:03:05.237Z,6.93
2018-09-18T14:05:33.613Z,4.13
2018-09-18T14:08:02.137Z,4.23
2018-09-18T14:10:30.818Z,4.37
2018-09-18T14:12:59.275Z,4.40
2018-09-18T14:15:27.770Z,5.10
2018-09-18T14:17:56.137Z,4.27
2018-09-18T14:20:24.503Z,5.43
2018-09-18T14:22:52.717Z,5.10
2018-09-18T14:25:21.052Z,4.87
2018-09-18T14:27:49.353Z,5.13
2018-09-18T14:30:17.662Z,5.17
2018-09-18T14:32:46.008Z,5.93
2018-09-18T14:35:14.497Z,5.60
2018-09-18T14:37:42.865Z,5.07
2018-09-18T14:40:11.077Z,5.90
2018-09-18T14:42:39.345Z,6.20
2018-09-18T14:45:07.719Z,5.37
2018-09-18T14:47:36.033Z,6.23
2018-09-18T14:50:04.642Z,6.80
2018-09-18T14:52:32.903Z,7.10
2018-09-18T14:55:01.242Z,6.43
2018-09-18T14:57:29.675Z,7.50
2018-09-18T14:59:58.052Z,7.33
2018-09-18T15:02:26.346Z,6.47
2018-09-18T15:04:54.633Z,6.03
2018-09-18T15:07:22.983Z,6.77
2018-09-18T15:09:51.184Z,6.40
2018-09-18T15:12:19.439Z,6.90
2018-09-18T15:14:48.270Z,6.90
2018-09-18T15:17:16.550Z,5.87
2018-09-18T15:19:45.204Z,6.77
2018-09-18T15:22:13.443Z,6.10
2018-09-18T15:24:41.709Z,6.30
2018-09-18T15:27:09.930Z,6.80
2018-09-18T15:29:38.175Z,7.70
2018-09-18T15:32:06.906Z,5.97
2018-09-18T15:34:35.102Z,6.77
2018-09-18T15:37:03.333Z,7.30
2018-09-18T15:39:31.695Z,5.90
2018-09-18T15:42:00.192Z,7.03
2018-09-18T15:44:28.448Z,6.77
2018-09-18T15:46:56.710Z,5.70
2018-09-18T15:49:25.001Z,5.73
2018-09-18T15:51:53.394Z,6.03
2018-09-18T15:54:21.612Z,6.03
2018-09-18T15:56:49.879Z,6.80
2018-09-18T15:59:18.118Z,6.90
2018-09-18T16:01:46.310Z,6.60
2018-09-18T16:04:14.611Z,8.27
2018-09-18T16:06:42.813Z,7.80
2018-09-18T16:09:11.636Z,6.73
2018-09-18T16:11:40.255Z,6.00
2018-09-18T16:14:09.044Z,6.90
2018-09-18T16:16:37.307Z,6.10
2018-09-18T16:19:05.847Z,6.60
2018-09-18T16:21:34.001Z,6.00
2018-09-18T16:24:02.243Z,6.57
2018-09-18T16:26:30.612Z,5.47
2018-09-18T16:28:58.811Z,5.53
2018-09-18T16:31:27.031Z,6.57
2018-09-18T16:33:55.237Z,5.97
2018-09-18T16:36:23.458Z,5.57
2018-09-18T16:38:51.665Z,6.03
2018-09-18T16:41:19.854Z,6.00
2018-09-18T16:43:48.081Z,7.00
2018-09-18T16:46:16.377Z,6.80
2018-09-18T16:48:45.101Z,5.90
2018-09-18T16:51:13.264Z,7.23
2018-09-18T16:53:41.523Z,6.37
2018-09-18T16:56:09.756Z,5.57
2018-09-18T16:58:38.043Z,6.80
2018-09-18T17:01:06.269Z,6.60
2018-09-18T17:03:34.529Z,6.70
2018-09-18T17:06:02.775Z,6.30
2018-09-18T17:08:30.991Z,7.10
2018-09-18T17:10:59.262Z,6.83
2018-09-18T17:13:27.549Z,5.73
2018-09-18T17:15:55.677Z,5.93
2018-09-18T17:18:23.916Z,5.87
2018-09-18T17:20:52.147Z,5.20
2018-09-18T17:23:20.380Z,6.43
2018-09-18T17:25:48.875Z,5.50
2018-09-18T17:28:17.103Z,4.97
2018-09-18T17:30:45.275Z,4.33
2018-09-18T17:33:13.913Z,4.60
2018-09-18T17:35:42.332Z,4.03
2018-09-18T17:38:10.487Z,4.43
2018-09-18T17:40:38.715Z,4.67
2018-09-18T17:43:06.919Z,4.10
2018-09-18T17:45:35.314Z,3.53
2018-09-18T17:48:03.576Z,4.07
2018-09-18T17:50:31.791Z,3.43
2018-09-18T17:53:00.020Z,3.67
2018-09-18T17:55:28.319Z,3.47
2018-09-18T17:57:56.516Z,3.00
2018-09-18T18:00:24.741Z,3.70
2018-09-18T18:02:53.019Z,3.77
2018-09-18T18:05:21.366Z,3.03
2018-09-18T18:07:49.554Z,3.83
2018-09-18T18:10:17.769Z,3.30
2018-09-18T18:12:45.957Z,3.20
2018-09-18T18:15:14.254Z,4.10
2018-09-18T18:17:42.787Z,3.40
2018-09-18T18:20:10.991Z,3.80
2018-09-18T18:22:39.188Z,3.27
2018-09-18T18:25:07.478Z,3.17
2018-09-18T18:27:35.686Z,3.10
2018-09-18T18:30:04.050Z,3.13
2018-09-18T18:32:32.226Z,2.90
2018-09-18T18:35:00.442Z,2.83
2018-09-18T18:37:28.635Z,3.23
2018-09-18T18:39:56.897Z,3.23
2018-09-18T18:42:25.123Z,3.50
2018-09-18T18:44:53.328Z,3.20
2018-09-18T18:47:21.571Z,4.00
2018-09-18T18:49:49.779Z,4.77
2018-09-18T18:52:17.987Z,3.00
2018-09-18T18:54:46.209Z,3.40
2018-09-18T18:57:14.418Z,4.00
2018-09-18T18:59:42.637Z,3.03
2018-09-18T19:02:11.121Z,3.67
2018-09-18T19:04:39.386Z,3.60
2018-09-18T19:07:07.549Z,4.30
2018-09-18T19:09:35.766Z,4.20
2018-09-18T19:12:04.028Z,3.90
2018-09-18T19:14:32.232Z,3.30
2018-09-18T19:17:00.453Z,3.80
2018-09-18T19:19:28.653Z,2.63
2018-09-18T19:21:56.875Z,2.63
2018-09-18T19:24:25.260Z,2.77
2018-09-18T19:26:53.618Z,2.53
2018-09-18T19:29:21.809Z,9.07
2018-09-18T19:31:50.023Z,4.80
2018-09-18T19:34:18.225Z,2.50
2018-09-18T19:36:46.453Z,2.50
2018-09-18T19:39:14.746Z,2.90
2018-09-18T19:41:42.883Z,2.40
2018-09-18T19:44:11.102Z,3.67
2018-09-18T19:46:39.455Z,2.57
2018-09-18T19:49:07.649Z,2.70
2018-09-18T19:51:35.867Z,2.60
2018-09-18T19:54:04.253Z,2.43
2018-09-18T19:56:32.437Z,2.97
2018-09-18T19:59:00.645Z,2.30
2018-09-18T20:01:28.896Z,2.20
2018-09-18T20:03:57.086Z,2.00
2018-09-18T20:06:25.273Z,2.60
2018-09-18T20:08:53.614Z,2.43
2018-09-18T20:11:21.822Z,2.33
2018-09-18T20:13:50.054Z,2.70
2018-09-18T20:16:18.254Z,1.83
2018-09-18T20:18:46.495Z,2.40
2018-09-18T20:21:14.725Z,2.30
2018-09-18T20:23:42.956Z,1.93
2018-09-18T20:26:11.144Z,2.17
2018-09-18T20:28:40.285Z,2.60
2018-09-18T20:31:08.717Z,2.90
2018-09-18T20:33:36.937Z,3.10
2018-09-18T20:36:05.232Z,3.10
2018-09-18T20:38:33.390Z,3.27
2018-09-18T20:41:01.916Z,2.50
2018-09-18T20:43:30.104Z,2.30
2018-09-18T20:45:58.344Z,2.30
2018-09-18T20:48:26.606Z,1.90
2018-09-18T20:50:54.783Z,2.03
2018-09-18T20:53:23.197Z,1.63
2018-09-18T20:55:51.397Z,2.00
2018-09-18T20:58:19.633Z,1.70
2018-09-18T21:00:47.849Z,1.43
2018-09-18T21:03:16.049Z,1.63
2018-09-18T21:05:44.282Z,1.30
2018-09-18T21:08:12.502Z,1.60
2018-09-18T21:10:40.750Z,1.93
2018-09-18T21:13:08.969Z,2.10
2018-09-18T21:15:37.389Z,2.10
2018-09-18T21:18:05.644Z,1.80
2018-09-18T21:20:33.882Z,1.70
2018-09-18T21:23:02.093Z,2.30
2018-09-18T21:26:03.877Z,1.83
2018-09-18T21:28:32.110Z,1.70
2018-09-18T21:31:00.555Z,1.83
2018-09-18T21:33:28.864Z,1.63
2018-09-18T21:35:57.286Z,1.90
2018-09-18T21:38:25.489Z,3.47
2018-09-18T21:40:53.685Z,2.00
2018-09-18T21:43:21.973Z,2.17
2018-09-18T21:45:50.177Z,2.10
2018-09-18T21:48:18.404Z,1.87
2018-09-18T21:50:46.634Z,1.80
2018-09-18T21:53:15.464Z,1.80
2018-09-18T21:55:44.380Z,2.20
2018-09-18T21:58:12.748Z,1.93
2018-09-18T22:00:41.523Z,2.27
2018-09-18T22:03:09.885Z,1.23
2018-09-18T22:05:38.053Z,1.83
2018-09-18T22:08:06.304Z,2.13
2018-09-18T22:10:34.532Z,2.70
2018-09-18T22:13:03.119Z,2.67
2018-09-18T22:15:31.943Z,1.90
2018-09-18T22:18:00.186Z,2.27
2018-09-18T22:20:28.437Z,2.03
2018-09-18T22:22:56.656Z,2.00
2018-09-18T22:25:25.342Z,2.10
2018-09-18T22:27:53.995Z,2.00
2018-09-18T22:30:22.197Z,2.20
2018-09-18T22:32:50.406Z,2.40
2018-09-18T22:35:18.586Z,2.60
2018-09-18T22:37:46.836Z,2.50
2018-09-18T22:40:15.054Z,2.00
2018-09-18T22:42:43.546Z,1.70
2018-09-18T22:45:11.754Z,2.60
2018-09-18T22:47:39.985Z,1.97
2018-09-18T22:50:08.197Z,2.73
2018-09-18T22:52:36.413Z,2.23
2018-09-18T22:55:04.657Z,3.37
2018-09-18T22:57:32.896Z,2.00
2018-09-18T23:00:01.033Z,2.73
2018-09-18T23:02:29.281Z,2.80
2018-09-18T23:04:57.693Z,2.57
2018-09-18T23:07:25.902Z,4.30
2018-09-18T23:09:54.146Z,1.93
2018-09-18T23:12:22.372Z,2.30
2018-09-18T23:14:50.610Z,1.70
2018-09-18T23:17:18.864Z,2.77
2018-09-18T23:19:47.109Z,2.63
2018-09-18T23:22:15.357Z,3.30
2018-09-18T23:24:43.549Z,2.60
2018-09-18T23:27:12.040Z,3.37
2018-09-18T23:29:40.238Z,3.27
2018-09-18T23:32:08.444Z,2.77
2018-09-18T23:34:36.687Z,1.90
2018-09-18T23:37:04.949Z,2.10
2018-09-18T23:39:33.173Z,2.40
2018-09-18T23:42:01.457Z,3.13
2018-09-18T23:44:29.672Z,3.27
2018-09-18T23:46:57.865Z,2.27
2018-09-18T23:49:26.373Z,3.33
2018-09-18T23:51:54.588Z,3.20
2018-09-18T23:54:22.800Z,2.67
2018-09-18T23:56:51.011Z,2.60
2018-09-18T23:59:19.561Z,3.70
